sensor_id;sensor_type;location;lat;lon;timestamp;temperature;humidity
36186;DHT22;22228;53.222;7.446;2023-06-10T00:00:35;15.70;1.00
36186;DHT22;22228;53.222;7.446;2023-06-10T00:02:56;15.70;1.00
36186;DHT22;22228;53.222;7.446;2023-06-10T00:05:17;15.70;1.00
36186;DHT22;22228;53.222;7.446;2023-06-10T00:07:40;15.60;1.00
36186;DHT22;22228;53.222;7.446;2023-06-10T00:10:01;15.50;1.00
36186;DHT22;22228;53.222;7.446;2023-06-10T00:12:26;15.40;1.00
36186;DHT22;22228;53.222;7.446;2023-06-10T00:14:48;15.40;1.00
36186;DHT22;22228;53.222;7.446;2023-06-10T03:01:42;13.20;99.90
36186;DHT22;22228;53.222;7.446;2023-06-10T03:04:04;13.20;99.90
36186;DHT22;22228;53.222;7.446;2023-06-10T03:06:25;13.20;99.90
36186;DHT22;22228;53.222;7.446;2023-06-10T03:08:52;13.20;99.90
36186;DHT22;22228;53.222;7.446;2023-06-10T03:11:12;13.10;99.90
36186;DHT22;22228;53.222;7.446;2023-06-10T03:13:33;13.10;99.90
36186;DHT22;22228;53.222;7.446;2023-06-10T03:15:54;13.10;99.90
36186;DHT22;22228;53.222;7.446;2023-06-10T03:18:18;13.10;99.90
36186;DHT22;22228;53.222;7.446;2023-06-10T03:20:40;13.10;99.90
36186;DHT22;22228;53.222;7.446;2023-06-10T03:23:04;13.10;99.90
36186;DHT22;22228;53.222;7.446;2023-06-10T03:25:26;13.10;99.90
36186;DHT22;22228;53.222;7.446;2023-06-10T03:27:47;13.00;99.90
36186;DHT22;22228;53.222;7.446;2023-06-10T03:30:08;13.00;99.90
36186;DHT22;22228;53.222;7.446;2023-06-10T03:32:30;13.00;99.90
36186;DHT22;22228;53.222;7.446;2023-06-10T03:34:53;13.00;99.90
36186;DHT22;22228;53.222;7.446;2023-06-10T03:37:17;13.00;99.90
36186;DHT22;22228;53.222;7.446;2023-06-10T03:39:40;13.00;99.90
36186;DHT22;22228;53.222;7.446;2023-06-10T03:42:01;13.00;99.90
36186;DHT22;22228;53.222;7.446;2023-06-10T03:44:24;13.00;99.90
36186;DHT22;22228;53.222;7.446;2023-06-10T03:46:45;13.00;99.90
36186;DHT22;22228;53.222;7.446;2023-06-10T03:49:06;13.00;99.90
36186;DHT22;22228;53.222;7.446;2023-06-10T03:51:29;13.00;99.90
36186;DHT22;22228;53.222;7.446;2023-06-10T03:53:50;13.00;99.90
36186;DHT22;22228;53.222;7.446;2023-06-10T03:56:10;13.00;99.90
36186;DHT22;22228;53.222;7.446;2023-06-10T03:58:31;13.00;99.90
36186;DHT22;22228;53.222;7.446;2023-06-10T04:00:52;13.00;99.90
36186;DHT22;22228;53.222;7.446;2023-06-10T04:03:22;13.00;99.90
36186;DHT22;22228;53.222;7.446;2023-06-10T04:05:45;13.10;99.90
36186;DHT22;22228;53.222;7.446;2023-06-10T04:08:06;13.10;99.90
36186;DHT22;22228;53.222;7.446;2023-06-10T04:10:27;13.10;99.90
36186;DHT22;22228;53.222;7.446;2023-06-10T04:12:48;13.10;99.90
36186;DHT22;22228;53.222;7.446;2023-06-10T04:15:09;13.10;99.90
36186;DHT22;22228;53.222;7.446;2023-06-10T04:17:29;13.10;99.90
36186;DHT22;22228;53.222;7.446;2023-06-10T04:19:50;13.20;99.90
36186;DHT22;22228;53.222;7.446;2023-06-10T04:22:11;13.20;99.90
36186;DHT22;22228;53.222;7.446;2023-06-10T04:24:33;13.20;99.90
36186;DHT22;22228;53.222;7.446;2023-06-10T04:26:53;13.20;99.90
36186;DHT22;22228;53.222;7.446;2023-06-10T04:29:14;13.20;99.90
36186;DHT22;22228;53.222;7.446;2023-06-10T04:31:34;13.20;99.90
36186;DHT22;22228;53.222;7.446;2023-06-10T04:33:55;13.30;99.90
36186;DHT22;22228;53.222;7.446;2023-06-10T04:36:15;13.30;99.90
36186;DHT22;22228;53.222;7.446;2023-06-10T04:38:35;13.30;99.90
36186;DHT22;22228;53.222;7.446;2023-06-10T04:40:57;13.30;99.90
36186;DHT22;22228;53.222;7.446;2023-06-10T04:43:19;13.30;99.90
36186;DHT22;22228;53.222;7.446;2023-06-10T04:45:40;13.30;99.90
36186;DHT22;22228;53.222;7.446;2023-06-10T04:48:04;13.40;99.90
36186;DHT22;22228;53.222;7.446;2023-06-10T04:50:26;13.30;99.90
36186;DHT22;22228;53.222;7.446;2023-06-10T04:52:46;13.30;99.90
36186;DHT22;22228;53.222;7.446;2023-06-10T04:55:08;13.40;99.90
36186;DHT22;22228;53.222;7.446;2023-06-10T04:57:30;13.40;99.90
36186;DHT22;22228;53.222;7.446;2023-06-10T04:59:51;13.40;99.90
36186;DHT22;22228;53.222;7.446;2023-06-10T05:02:11;13.40;99.90
36186;DHT22;22228;53.222;7.446;2023-06-10T05:04:32;13.40;99.90
36186;DHT22;22228;53.222;7.446;2023-06-10T05:06:52;13.40;99.90
36186;DHT22;22228;53.222;7.446;2023-06-10T05:09:13;13.50;99.90
36186;DHT22;22228;53.222;7.446;2023-06-10T05:11:33;13.50;99.90
36186;DHT22;22228;53.222;7.446;2023-06-10T05:13:55;13.50;99.90
36186;DHT22;22228;53.222;7.446;2023-06-10T05:16:15;13.60;99.90
36186;DHT22;22228;53.222;7.446;2023-06-10T05:18:36;13.60;99.90
36186;DHT22;22228;53.222;7.446;2023-06-10T05:20:56;13.60;99.90
36186;DHT22;22228;53.222;7.446;2023-06-10T05:23:17;13.60;99.90
36186;DHT22;22228;53.222;7.446;2023-06-10T05:25:37;13.70;99.90
36186;DHT22;22228;53.222;7.446;2023-06-10T05:27:57;13.70;99.90
36186;DHT22;22228;53.222;7.446;2023-06-10T05:30:19;13.70;99.90
36186;DHT22;22228;53.222;7.446;2023-06-10T05:32:40;13.80;99.90
36186;DHT22;22228;53.222;7.446;2023-06-10T05:35:00;13.80;99.90
36186;DHT22;22228;53.222;7.446;2023-06-10T05:37:22;13.80;99.90
36186;DHT22;22228;53.222;7.446;2023-06-10T05:39:43;13.90;99.90
36186;DHT22;22228;53.222;7.446;2023-06-10T05:42:04;13.90;99.90
36186;DHT22;22228;53.222;7.446;2023-06-10T05:44:25;13.90;99.90
36186;DHT22;22228;53.222;7.446;2023-06-10T05:46:47;14.00;99.90
36186;DHT22;22228;53.222;7.446;2023-06-10T05:49:08;14.10;99.90
36186;DHT22;22228;53.222;7.446;2023-06-10T05:51:28;14.20;99.90
36186;DHT22;22228;53.222;7.446;2023-06-10T05:53:48;14.30;99.90
36186;DHT22;22228;53.222;7.446;2023-06-10T05:56:09;14.40;99.90
36186;DHT22;22228;53.222;7.446;2023-06-10T05:58:29;14.60;99.90
36186;DHT22;22228;53.222;7.446;2023-06-10T06:00:50;14.70;99.90
36186;DHT22;22228;53.222;7.446;2023-06-10T06:03:12;14.80;99.90
36186;DHT22;22228;53.222;7.446;2023-06-10T06:05:32;14.90;99.90
36186;DHT22;22228;53.222;7.446;2023-06-10T06:07:54;15.10;99.90
36186;DHT22;22228;53.222;7.446;2023-06-10T06:10:16;15.30;99.90
36186;DHT22;22228;53.222;7.446;2023-06-10T06:12:37;15.40;99.90
36186;DHT22;22228;53.222;7.446;2023-06-10T06:14:58;15.40;99.90
36186;DHT22;22228;53.222;7.446;2023-06-10T06:17:18;15.50;99.90
36186;DHT22;22228;53.222;7.446;2023-06-10T06:19:40;15.60;99.90
36186;DHT22;22228;53.222;7.446;2023-06-10T06:22:00;15.60;99.90
36186;DHT22;22228;53.222;7.446;2023-06-10T06:24:20;15.70;99.90
36186;DHT22;22228;53.222;7.446;2023-06-10T06:26:41;15.80;99.90
36186;DHT22;22228;53.222;7.446;2023-06-10T06:29:01;15.90;99.90
36186;DHT22;22228;53.222;7.446;2023-06-10T06:31:22;15.90;99.90
36186;DHT22;22228;53.222;7.446;2023-06-10T06:33:42;15.90;99.90
36186;DHT22;22228;53.222;7.446;2023-06-10T06:36:05;16.00;99.90
36186;DHT22;22228;53.222;7.446;2023-06-10T06:38:25;16.10;99.90
36186;DHT22;22228;53.222;7.446;2023-06-10T06:40:45;16.20;99.90
36186;DHT22;22228;53.222;7.446;2023-06-10T06:43:06;16.30;99.90
36186;DHT22;22228;53.222;7.446;2023-06-10T06:45:35;16.50;99.90
36186;DHT22;22228;53.222;7.446;2023-06-10T06:47:56;16.60;99.90
36186;DHT22;22228;53.222;7.446;2023-06-10T06:50:16;16.60;99.90
36186;DHT22;22228;53.222;7.446;2023-06-10T06:52:38;16.70;99.90
36186;DHT22;22228;53.222;7.446;2023-06-10T06:54:58;16.80;44.80
36186;DHT22;22228;53.222;7.446;2023-06-10T06:57:19;16.90;1.00
36186;DHT22;22228;53.222;7.446;2023-06-10T06:59:39;16.90;1.00
36186;DHT22;22228;53.222;7.446;2023-06-10T07:02:00;17.00;1.00
36186;DHT22;22228;53.222;7.446;2023-06-10T07:04:20;17.10;99.90
36186;DHT22;22228;53.222;7.446;2023-06-10T07:06:42;17.20;1.00
36186;DHT22;22228;53.222;7.446;2023-06-10T07:09:04;17.40;1.00
36186;DHT22;22228;53.222;7.446;2023-06-10T07:11:24;17.40;7.80
36186;DHT22;22228;53.222;7.446;2023-06-10T07:13:44;17.40;1.00
36186;DHT22;22228;53.222;7.446;2023-06-10T07:16:05;17.50;99.90
36186;DHT22;22228;53.222;7.446;2023-06-10T07:18:25;17.60;1.00
36186;DHT22;22228;53.222;7.446;2023-06-10T07:20:45;17.70;99.90
36186;DHT22;22228;53.222;7.446;2023-06-10T07:23:06;17.90;99.90
36186;DHT22;22228;53.222;7.446;2023-06-10T07:25:28;17.90;99.90
36186;DHT22;22228;53.222;7.446;2023-06-10T07:27:48;18.10;99.90
36186;DHT22;22228;53.222;7.446;2023-06-10T07:30:09;18.10;1.00
36186;DHT22;22228;53.222;7.446;2023-06-10T07:32:30;18.10;99.90
36186;DHT22;22228;53.222;7.446;2023-06-10T07:34:50;18.20;99.90
36186;DHT22;22228;53.222;7.446;2023-06-10T07:37:11;18.30;1.00
36186;DHT22;22228;53.222;7.446;2023-06-10T07:39:31;18.50;99.90
36186;DHT22;22228;53.222;7.446;2023-06-10T07:41:53;18.50;99.90
36186;DHT22;22228;53.222;7.446;2023-06-10T07:44:16;18.60;99.90
36186;DHT22;22228;53.222;7.446;2023-06-10T07:46:37;18.60;99.90
36186;DHT22;22228;53.222;7.446;2023-06-10T07:48:57;18.70;1.00
36186;DHT22;22228;53.222;7.446;2023-06-10T07:51:18;18.90;1.00
36186;DHT22;22228;53.222;7.446;2023-06-10T07:53:38;19.00;99.90
36186;DHT22;22228;53.222;7.446;2023-06-10T07:55:59;19.10;99.90
36186;DHT22;22228;53.222;7.446;2023-06-10T07:58:21;19.30;99.90
36186;DHT22;22228;53.222;7.446;2023-06-10T08:00:41;19.50;1.00
36186;DHT22;22228;53.222;7.446;2023-06-10T08:03:02;19.60;99.90
36186;DHT22;22228;53.222;7.446;2023-06-10T08:05:22;19.70;99.90
36186;DHT22;22228;53.222;7.446;2023-06-10T08:07:44;19.70;99.90
36186;DHT22;22228;53.222;7.446;2023-06-10T08:10:06;19.80;99.90
36186;DHT22;22228;53.222;7.446;2023-06-10T08:12:26;20.00;95.00
36186;DHT22;22228;53.222;7.446;2023-06-10T08:14:48;20.00;1.00
36186;DHT22;22228;53.222;7.446;2023-06-10T08:17:09;20.00;1.00
36186;DHT22;22228;53.222;7.446;2023-06-10T08:19:29;20.00;1.00
36186;DHT22;22228;53.222;7.446;2023-06-10T08:21:50;20.00;1.00
36186;DHT22;22228;53.222;7.446;2023-06-10T08:24:10;20.00;1.00
36186;DHT22;22228;53.222;7.446;2023-06-10T08:26:31;19.90;1.00
36186;DHT22;22228;53.222;7.446;2023-06-10T08:28:51;20.00;1.00
36186;DHT22;22228;53.222;7.446;2023-06-10T08:31:13;20.10;1.00
36186;DHT22;22228;53.222;7.446;2023-06-10T08:33:34;20.20;1.00
36186;DHT22;22228;53.222;7.446;2023-06-10T08:35:54;20.30;1.00
36186;DHT22;22228;53.222;7.446;2023-06-10T08:38:15;20.30;1.00
36186;DHT22;22228;53.222;7.446;2023-06-10T08:40:37;20.50;1.00
36186;DHT22;22228;53.222;7.446;2023-06-10T08:43:03;20.50;1.00
36186;DHT22;22228;53.222;7.446;2023-06-10T08:45:29;20.70;1.00
36186;DHT22;22228;53.222;7.446;2023-06-10T08:47:52;20.90;99.90
36186;DHT22;22228;53.222;7.446;2023-06-10T08:50:14;20.90;99.90
36186;DHT22;22228;53.222;7.446;2023-06-10T08:52:38;21.00;99.90
36186;DHT22;22228;53.222;7.446;2023-06-10T08:55:04;21.10;99.90
36186;DHT22;22228;53.222;7.446;2023-06-10T08:57:25;21.10;47.20
36186;DHT22;22228;53.222;7.446;2023-06-10T08:59:45;21.20;99.90
36186;DHT22;22228;53.222;7.446;2023-06-10T09:02:07;21.30;99.90
36186;DHT22;22228;53.222;7.446;2023-06-10T09:04:29;21.50;1.80
36186;DHT22;22228;53.222;7.446;2023-06-10T09:06:51;21.70;1.00
36186;DHT22;22228;53.222;7.446;2023-06-10T09:09:14;21.70;1.00
36186;DHT22;22228;53.222;7.446;2023-06-10T09:11:34;21.90;1.00
36186;DHT22;22228;53.222;7.446;2023-06-10T09:13:55;22.00;1.00
36186;DHT22;22228;53.222;7.446;2023-06-10T09:16:16;22.10;1.00
36186;DHT22;22228;53.222;7.446;2023-06-10T09:18:37;22.20;1.00
36186;DHT22;22228;53.222;7.446;2023-06-10T09:20:59;22.50;1.00
36186;DHT22;22228;53.222;7.446;2023-06-10T09:23:19;22.60;99.90
36186;DHT22;22228;53.222;7.446;2023-06-10T09:25:40;22.70;99.90
36186;DHT22;22228;53.222;7.446;2023-06-10T09:28:00;22.80;99.90
36186;DHT22;22228;53.222;7.446;2023-06-10T09:30:25;23.00;99.90
36186;DHT22;22228;53.222;7.446;2023-06-10T09:32:46;22.90;99.90
36186;DHT22;22228;53.222;7.446;2023-06-10T09:35:09;22.70;99.90
36186;DHT22;22228;53.222;7.446;2023-06-10T09:37:31;22.80;99.90
36186;DHT22;22228;53.222;7.446;2023-06-10T09:40:05;22.80;99.90
36186;DHT22;22228;53.222;7.446;2023-06-10T09:42:25;23.00;99.90
36186;DHT22;22228;53.222;7.446;2023-06-10T09:44:49;23.10;99.90
36186;DHT22;22228;53.222;7.446;2023-06-10T09:47:19;23.20;99.90
36186;DHT22;22228;53.222;7.446;2023-06-10T09:49:40;23.40;99.90
36186;DHT22;22228;53.222;7.446;2023-06-10T09:52:00;23.60;76.40
36186;DHT22;22228;53.222;7.446;2023-06-10T09:54:31;23.80;1.00
36186;DHT22;22228;53.222;7.446;2023-06-10T09:56:52;23.90;1.00
36186;DHT22;22228;53.222;7.446;2023-06-10T09:59:12;24.00;49.60
36186;DHT22;22228;53.222;7.446;2023-06-10T10:01:33;24.20;99.90
36186;DHT22;22228;53.222;7.446;2023-06-10T10:03:57;24.30;1.00
36186;DHT22;22228;53.222;7.446;2023-06-10T10:06:19;24.50;1.00
36186;DHT22;22228;53.222;7.446;2023-06-10T10:08:39;24.60;1.00
36186;DHT22;22228;53.222;7.446;2023-06-10T10:11:02;24.80;1.00
36186;DHT22;22228;53.222;7.446;2023-06-10T10:13:24;24.80;1.00
36186;DHT22;22228;53.222;7.446;2023-06-10T10:15:46;24.80;1.00
36186;DHT22;22228;53.222;7.446;2023-06-10T10:18:09;24.80;1.00
36186;DHT22;22228;53.222;7.446;2023-06-10T10:20:33;24.80;1.00
36186;DHT22;22228;53.222;7.446;2023-06-10T10:22:57;24.90;1.00
36186;DHT22;22228;53.222;7.446;2023-06-10T10:25:23;25.10;1.00
36186;DHT22;22228;53.222;7.446;2023-06-10T10:27:48;25.30;1.00
36186;DHT22;22228;53.222;7.446;2023-06-10T10:30:12;25.40;1.00
36186;DHT22;22228;53.222;7.446;2023-06-10T10:32:35;25.60;99.90
36186;DHT22;22228;53.222;7.446;2023-06-10T10:35:03;25.70;99.90
36186;DHT22;22228;53.222;7.446;2023-06-10T10:37:28;26.00;99.90
36186;DHT22;22228;53.222;7.446;2023-06-10T10:39:49;26.10;99.90
36186;DHT22;22228;53.222;7.446;2023-06-10T10:42:10;26.00;99.90
36186;DHT22;22228;53.222;7.446;2023-06-10T10:44:32;26.20;99.90
36186;DHT22;22228;53.222;7.446;2023-06-10T10:46:53;26.50;99.90
36186;DHT22;22228;53.222;7.446;2023-06-10T10:49:14;26.60;99.90
36186;DHT22;22228;53.222;7.446;2023-06-10T10:51:35;26.50;99.90
36186;DHT22;22228;53.222;7.446;2023-06-10T10:54:12;26.90;99.90
36186;DHT22;22228;53.222;7.446;2023-06-10T10:56:33;26.90;99.90
36186;DHT22;22228;53.222;7.446;2023-06-10T10:59:03;27.20;99.90
36186;DHT22;22228;53.222;7.446;2023-06-10T11:01:39;27.50;99.90
36186;DHT22;22228;53.222;7.446;2023-06-10T11:04:00;28.00;99.90
36186;DHT22;22228;53.222;7.446;2023-06-10T11:06:21;28.50;99.90
36186;DHT22;22228;53.222;7.446;2023-06-10T11:08:48;28.80;99.90
36186;DHT22;22228;53.222;7.446;2023-06-10T11:11:18;29.10;99.90
36186;DHT22;22228;53.222;7.446;2023-06-10T11:13:40;29.20;99.90
36186;DHT22;22228;53.222;7.446;2023-06-10T11:16:04;29.40;99.90
36186;DHT22;22228;53.222;7.446;2023-06-10T11:18:28;29.90;99.90
36186;DHT22;22228;53.222;7.446;2023-06-10T11:20:58;30.20;99.90
36186;DHT22;22228;53.222;7.446;2023-06-10T11:23:38;30.70;99.90
36186;DHT22;22228;53.222;7.446;2023-06-10T11:26:15;31.20;99.90
36186;DHT22;22228;53.222;7.446;2023-06-10T11:28:36;31.60;99.90
36186;DHT22;22228;53.222;7.446;2023-06-10T11:30:59;31.90;99.90
36186;DHT22;22228;53.222;7.446;2023-06-10T11:33:22;31.30;99.90
36186;DHT22;22228;53.222;7.446;2023-06-10T11:35:45;31.50;99.90
36186;DHT22;22228;53.222;7.446;2023-06-10T11:38:05;31.30;99.90
36186;DHT22;22228;53.222;7.446;2023-06-10T11:40:26;31.50;99.90
36186;DHT22;22228;53.222;7.446;2023-06-10T11:42:49;31.80;99.90
36186;DHT22;22228;53.222;7.446;2023-06-10T11:45:14;32.40;99.90
36186;DHT22;22228;53.222;7.446;2023-06-10T11:47:34;32.60;99.90
36186;DHT22;22228;53.222;7.446;2023-06-10T11:49:56;32.80;99.90
36186;DHT22;22228;53.222;7.446;2023-06-10T11:52:26;32.80;99.90
36186;DHT22;22228;53.222;7.446;2023-06-10T11:54:53;32.80;99.90
36186;DHT22;22228;53.222;7.446;2023-06-10T11:57:14;32.60;99.90
36186;DHT22;22228;53.222;7.446;2023-06-10T11:59:34;32.40;99.90
36186;DHT22;22228;53.222;7.446;2023-06-10T12:01:56;32.30;99.90
36186;DHT22;22228;53.222;7.446;2023-06-10T12:04:16;32.40;99.90
36186;DHT22;22228;53.222;7.446;2023-06-10T12:06:40;32.80;99.90
36186;DHT22;22228;53.222;7.446;2023-06-10T12:09:01;33.20;99.90
36186;DHT22;22228;53.222;7.446;2023-06-10T12:11:22;33.00;99.90
36186;DHT22;22228;53.222;7.446;2023-06-10T12:13:46;32.70;99.90
36186;DHT22;22228;53.222;7.446;2023-06-10T12:16:08;33.00;99.90
36186;DHT22;22228;53.222;7.446;2023-06-10T12:18:29;33.50;99.90
36186;DHT22;22228;53.222;7.446;2023-06-10T12:20:50;34.10;99.90
36186;DHT22;22228;53.222;7.446;2023-06-10T12:23:11;34.60;99.90
36186;DHT22;22228;53.222;7.446;2023-06-10T12:25:34;34.80;99.90
36186;DHT22;22228;53.222;7.446;2023-06-10T12:27:57;35.00;99.90
36186;DHT22;22228;53.222;7.446;2023-06-10T12:30:19;34.50;99.90
36186;DHT22;22228;53.222;7.446;2023-06-10T12:32:41;34.40;99.90
36186;DHT22;22228;53.222;7.446;2023-06-10T12:35:03;34.40;99.90
36186;DHT22;22228;53.222;7.446;2023-06-10T12:37:24;34.40;99.90
36186;DHT22;22228;53.222;7.446;2023-06-10T12:42:26;34.40;99.90
36186;DHT22;22228;53.222;7.446;2023-06-10T12:44:53;34.50;99.90
36186;DHT22;22228;53.222;7.446;2023-06-10T12:47:13;34.60;99.90
36186;DHT22;22228;53.222;7.446;2023-06-10T12:49:34;34.40;99.90
36186;DHT22;22228;53.222;7.446;2023-06-10T12:51:55;34.40;99.90
36186;DHT22;22228;53.222;7.446;2023-06-10T12:54:16;34.60;99.90
36186;DHT22;22228;53.222;7.446;2023-06-10T12:56:36;34.50;99.90
36186;DHT22;22228;53.222;7.446;2023-06-10T12:58:58;34.90;99.90
36186;DHT22;22228;53.222;7.446;2023-06-10T13:01:18;34.70;99.90
36186;DHT22;22228;53.222;7.446;2023-06-10T13:03:39;35.20;99.90
36186;DHT22;22228;53.222;7.446;2023-06-10T13:06:00;35.90;99.90
36186;DHT22;22228;53.222;7.446;2023-06-10T13:08:20;35.70;99.90
36186;DHT22;22228;53.222;7.446;2023-06-10T13:10:41;35.60;99.90
36186;DHT22;22228;53.222;7.446;2023-06-10T13:13:02;35.60;99.90
36186;DHT22;22228;53.222;7.446;2023-06-10T13:15:25;34.80;99.90
36186;DHT22;22228;53.222;7.446;2023-06-10T13:17:47;34.70;99.90
36186;DHT22;22228;53.222;7.446;2023-06-10T13:20:08;34.10;99.90
36186;DHT22;22228;53.222;7.446;2023-06-10T13:22:29;34.60;99.90
36186;DHT22;22228;53.222;7.446;2023-06-10T13:24:51;35.10;99.90
36186;DHT22;22228;53.222;7.446;2023-06-10T13:27:12;35.90;99.90
36186;DHT22;22228;53.222;7.446;2023-06-10T13:29:33;36.20;99.90
36186;DHT22;22228;53.222;7.446;2023-06-10T13:31:55;36.80;99.90
36186;DHT22;22228;53.222;7.446;2023-06-10T13:34:15;37.20;99.90
36186;DHT22;22228;53.222;7.446;2023-06-10T13:36:36;36.40;99.90
36186;DHT22;22228;53.222;7.446;2023-06-10T13:38:56;36.90;99.90
36186;DHT22;22228;53.222;7.446;2023-06-10T13:41:17;36.70;99.90
36186;DHT22;22228;53.222;7.446;2023-06-10T13:43:37;36.20;99.90
36186;DHT22;22228;53.222;7.446;2023-06-10T13:45:57;35.80;99.90
36186;DHT22;22228;53.222;7.446;2023-06-10T13:48:19;35.80;99.90
36186;DHT22;22228;53.222;7.446;2023-06-10T13:50:40;36.20;99.90
36186;DHT22;22228;53.222;7.446;2023-06-10T13:53:04;37.10;99.90
36186;DHT22;22228;53.222;7.446;2023-06-10T13:55:24;37.40;99.90
36186;DHT22;22228;53.222;7.446;2023-06-10T13:57:45;37.90;99.90
36186;DHT22;22228;53.222;7.446;2023-06-10T14:00:06;38.30;99.90
36186;DHT22;22228;53.222;7.446;2023-06-10T14:02:27;38.40;99.90
36186;DHT22;22228;53.222;7.446;2023-06-10T14:04:49;38.70;99.90
36186;DHT22;22228;53.222;7.446;2023-06-10T14:07:10;38.90;99.90
36186;DHT22;22228;53.222;7.446;2023-06-10T14:09:30;39.70;99.90
36186;DHT22;22228;53.222;7.446;2023-06-10T14:11:51;40.10;99.90
36186;DHT22;22228;53.222;7.446;2023-06-10T14:14:11;40.10;99.90
36186;DHT22;22228;53.222;7.446;2023-06-10T14:16:33;39.90;99.90
36186;DHT22;22228;53.222;7.446;2023-06-10T14:18:53;39.80;99.90
36186;DHT22;22228;53.222;7.446;2023-06-10T14:21:15;40.40;99.90
36186;DHT22;22228;53.222;7.446;2023-06-10T14:23:36;40.70;99.90
36186;DHT22;22228;53.222;7.446;2023-06-10T14:25:57;41.20;99.90
36186;DHT22;22228;53.222;7.446;2023-06-10T14:28:18;41.20;99.90
36186;DHT22;22228;53.222;7.446;2023-06-10T14:30:38;40.30;99.90
36186;DHT22;22228;53.222;7.446;2023-06-10T14:32:59;39.90;99.90
36186;DHT22;22228;53.222;7.446;2023-06-10T14:35:20;40.00;99.90
36186;DHT22;22228;53.222;7.446;2023-06-10T14:37:42;39.90;99.90
36186;DHT22;22228;53.222;7.446;2023-06-10T14:40:03;39.90;99.90
36186;DHT22;22228;53.222;7.446;2023-06-10T14:42:24;40.60;99.90
36186;DHT22;22228;53.222;7.446;2023-06-10T14:44:44;41.10;99.90
36186;DHT22;22228;53.222;7.446;2023-06-10T14:47:05;41.30;99.90
36186;DHT22;22228;53.222;7.446;2023-06-10T14:49:25;41.40;99.90
36186;DHT22;22228;53.222;7.446;2023-06-10T14:51:46;41.50;99.90
36186;DHT22;22228;53.222;7.446;2023-06-10T14:54:10;41.50;99.90
36186;DHT22;22228;53.222;7.446;2023-06-10T14:56:30;41.00;99.90
36186;DHT22;22228;53.222;7.446;2023-06-10T14:58:51;40.20;99.90
36186;DHT22;22228;53.222;7.446;2023-06-10T15:01:11;39.00;99.90
36186;DHT22;22228;53.222;7.446;2023-06-10T15:03:31;37.50;99.90
36186;DHT22;22228;53.222;7.446;2023-06-10T15:05:52;35.70;99.90
36186;DHT22;22228;53.222;7.446;2023-06-10T15:08:12;34.50;99.90
36186;DHT22;22228;53.222;7.446;2023-06-10T15:10:34;33.60;99.90
36186;DHT22;22228;53.222;7.446;2023-06-10T15:12:55;33.00;99.90
36186;DHT22;22228;53.222;7.446;2023-06-10T15:15:16;32.30;99.90
36186;DHT22;22228;53.222;7.446;2023-06-10T15:17:36;31.90;99.90
36186;DHT22;22228;53.222;7.446;2023-06-10T15:19:57;31.90;99.90
36186;DHT22;22228;53.222;7.446;2023-06-10T15:22:22;31.80;99.90
36186;DHT22;22228;53.222;7.446;2023-06-10T15:24:42;31.50;99.90
36186;DHT22;22228;53.222;7.446;2023-06-10T15:27:04;31.20;99.90
36186;DHT22;22228;53.222;7.446;2023-06-10T15:29:27;31.20;99.90
36186;DHT22;22228;53.222;7.446;2023-06-10T15:31:47;31.20;99.90
36186;DHT22;22228;53.222;7.446;2023-06-10T15:34:08;31.40;99.90
36186;DHT22;22228;53.222;7.446;2023-06-10T15:36:28;32.00;99.90
36186;DHT22;22228;53.222;7.446;2023-06-10T15:38:50;32.60;99.90
36186;DHT22;22228;53.222;7.446;2023-06-10T15:41:10;33.40;99.90
36186;DHT22;22228;53.222;7.446;2023-06-10T15:43:32;34.80;99.90
36186;DHT22;22228;53.222;7.446;2023-06-10T15:45:52;35.70;99.90
36186;DHT22;22228;53.222;7.446;2023-06-10T15:48:13;36.60;99.90
36186;DHT22;22228;53.222;7.446;2023-06-10T15:50:33;37.60;99.90
36186;DHT22;22228;53.222;7.446;2023-06-10T15:52:54;37.90;99.90
36186;DHT22;22228;53.222;7.446;2023-06-10T15:55:14;38.60;99.90
36186;DHT22;22228;53.222;7.446;2023-06-10T15:57:35;39.20;99.90
36186;DHT22;22228;53.222;7.446;2023-06-10T15:59:57;39.30;99.90
36186;DHT22;22228;53.222;7.446;2023-06-10T16:02:17;39.10;99.90
36186;DHT22;22228;53.222;7.446;2023-06-10T16:04:38;38.80;99.90
36186;DHT22;22228;53.222;7.446;2023-06-10T16:06:58;38.30;99.90
36186;DHT22;22228;53.222;7.446;2023-06-10T16:09:19;38.50;99.90
36186;DHT22;22228;53.222;7.446;2023-06-10T16:11:39;38.30;99.90
36186;DHT22;22228;53.222;7.446;2023-06-10T16:14:00;38.10;99.90
36186;DHT22;22228;53.222;7.446;2023-06-10T16:16:21;38.50;99.90
36186;DHT22;22228;53.222;7.446;2023-06-10T16:18:42;38.80;99.90
36186;DHT22;22228;53.222;7.446;2023-06-10T16:21:03;38.50;99.90
36186;DHT22;22228;53.222;7.446;2023-06-10T16:23:24;38.40;99.90
36186;DHT22;22228;53.222;7.446;2023-06-10T16:25:44;37.70;99.90
36186;DHT22;22228;53.222;7.446;2023-06-10T16:28:05;36.40;99.90
36186;DHT22;22228;53.222;7.446;2023-06-10T16:30:26;36.30;99.90
36186;DHT22;22228;53.222;7.446;2023-06-10T16:32:47;36.60;99.90
36186;DHT22;22228;53.222;7.446;2023-06-10T16:35:08;36.60;99.90
36186;DHT22;22228;53.222;7.446;2023-06-10T16:37:28;36.50;99.90
36186;DHT22;22228;53.222;7.446;2023-06-10T16:39:48;36.00;99.90
36186;DHT22;22228;53.222;7.446;2023-06-10T16:42:10;36.10;99.90
36186;DHT22;22228;53.222;7.446;2023-06-10T16:44:30;36.70;99.90
36186;DHT22;22228;53.222;7.446;2023-06-10T16:46:51;37.50;99.90
36186;DHT22;22228;53.222;7.446;2023-06-10T16:49:12;38.00;99.90
36186;DHT22;22228;53.222;7.446;2023-06-10T16:51:33;38.80;99.90
36186;DHT22;22228;53.222;7.446;2023-06-10T16:53:53;38.40;99.90
36186;DHT22;22228;53.222;7.446;2023-06-10T16:56:14;38.50;99.90
36186;DHT22;22228;53.222;7.446;2023-06-10T16:58:34;39.00;99.90
36186;DHT22;22228;53.222;7.446;2023-06-10T17:00:57;39.40;99.90
36186;DHT22;22228;53.222;7.446;2023-06-10T17:03:21;39.60;99.90
36186;DHT22;22228;53.222;7.446;2023-06-10T17:05:43;39.70;99.90
36186;DHT22;22228;53.222;7.446;2023-06-10T17:08:03;39.70;99.90
36186;DHT22;22228;53.222;7.446;2023-06-10T17:10:24;39.40;99.90
36186;DHT22;22228;53.222;7.446;2023-06-10T17:12:44;39.00;99.90
36186;DHT22;22228;53.222;7.446;2023-06-10T17:15:07;39.20;99.90
36186;DHT22;22228;53.222;7.446;2023-06-10T17:17:27;39.20;99.90
36186;DHT22;22228;53.222;7.446;2023-06-10T17:19:48;39.30;99.90
36186;DHT22;22228;53.222;7.446;2023-06-10T17:22:10;39.00;99.90
36186;DHT22;22228;53.222;7.446;2023-06-10T17:24:30;39.00;99.90
36186;DHT22;22228;53.222;7.446;2023-06-10T17:26:51;38.70;99.90
36186;DHT22;22228;53.222;7.446;2023-06-10T17:29:11;38.80;99.90
36186;DHT22;22228;53.222;7.446;2023-06-10T17:31:32;38.90;99.90
36186;DHT22;22228;53.222;7.446;2023-06-10T17:33:52;39.40;99.90
36186;DHT22;22228;53.222;7.446;2023-06-10T17:36:13;39.60;99.90
36186;DHT22;22228;53.222;7.446;2023-06-10T17:38:35;39.50;99.90
36186;DHT22;22228;53.222;7.446;2023-06-10T17:40:55;38.90;99.90
36186;DHT22;22228;53.222;7.446;2023-06-10T17:43:16;38.60;99.90